sensor_id;sensor_type;location;lat;lon;timestamp;pressure;altitude;pressure_sealevel;temperature;humidity
16664;BME280;8445;51.270;9.434;2023-08-06T00:00:29;98655.88;;;14.54;76.37
16664;BME280;8445;51.270;9.434;2023-08-06T00:02:55;98646.47;;;14.52;76.39
16664;BME280;8445;51.270;9.434;2023-08-06T00:05:21;98638.41;;;14.52;76.32
16664;BME280;8445;51.270;9.434;2023-08-06T00:07:48;98637.59;;;14.51;76.18
16664;BME280;8445;51.270;9.434;2023-08-06T00:10:14;98642.97;;;14.51;76.55
16664;BME280;8445;51.270;9.434;2023-08-06T00:12:40;98628.19;;;14.48;76.48
16664;BME280;8445;51.270;9.434;2023-08-06T00:15:10;98626.56;;;14.47;76.65
16664;BME280;8445;51.270;9.434;2023-08-06T00:17:36;98626.78;;;14.46;76.39
16664;BME280;8445;51.270;9.434;2023-08-06T00:20:04;98624.94;;;14.46;76.93
16664;BME280;8445;51.270;9.434;2023-08-06T00:22:37;98613.47;;;14.39;76.74
16664;BME280;8445;51.270;9.434;2023-08-06T00:25:04;98623.75;;;14.42;76.97
16664;BME280;8445;51.270;9.434;2023-08-06T00:27:31;98617.53;;;14.42;76.86
16664;BME280;8445;51.270;9.434;2023-08-06T00:29:58;98616.75;;;14.41;77.09
16664;BME280;8445;51.270;9.434;2023-08-06T00:32:24;98616.75;;;14.41;77.01
16664;BME280;8445;51.270;9.434;2023-08-06T00:34:50;98608.94;;;14.40;77.05
16664;BME280;8445;51.270;9.434;2023-08-06T00:37:19;98605.22;;;14.41;77.35
16664;BME280;8445;51.270;9.434;2023-08-06T00:39:46;98592.06;;;14.39;77.23
16664;BME280;8445;51.270;9.434;2023-08-06T00:42:12;98590.75;;;14.42;77.17
16664;BME280;8445;51.270;9.434;2023-08-06T00:44:39;98582.72;;;14.42;77.46
16664;BME280;8445;51.270;9.434;2023-08-06T00:47:08;98586.69;;;14.39;77.39
16664;BME280;8445;51.270;9.434;2023-08-06T00:49:36;98580.75;;;14.37;77.20
16664;BME280;8445;51.270;9.434;2023-08-06T00:52:06;98580.75;;;14.37;77.43
16664;BME280;8445;51.270;9.434;2023-08-06T00:54:36;98567.03;;;14.34;77.48
16664;BME280;8445;51.270;9.434;2023-08-06T00:57:04;98561.69;;;14.34;77.65
16664;BME280;8445;51.270;9.434;2023-08-06T00:59:32;98553.19;;;14.25;77.75
16664;BME280;8445;51.270;9.434;2023-08-06T01:01:59;98561.22;;;14.25;77.87
16664;BME280;8445;51.270;9.434;2023-08-06T01:04:26;98563.00;;;14.19;77.78
16664;BME280;8445;51.270;9.434;2023-08-06T01:10:26;98563.47;;;14.16;78.08
16664;BME280;8445;51.270;9.434;2023-08-06T01:13:26;98555.66;;;14.15;78.29
16664;BME280;8445;51.270;9.434;2023-08-06T01:15:58;98555.22;;;14.18;78.12
16664;BME280;8445;51.270;9.434;2023-08-06T01:18:26;98561.94;;;14.20;78.19
16664;BME280;8445;51.270;9.434;2023-08-06T01:20:52;98568.44;;;14.25;78.05
16664;BME280;8445;51.270;9.434;2023-08-06T01:23:19;98565.28;;;14.28;78.03
16664;BME280;8445;51.270;9.434;2023-08-06T01:26:14;98563.78;;;14.32;78.44
16664;BME280;8445;51.270;9.434;2023-08-06T01:29:02;98560.38;;;14.36;78.25
16664;BME280;8445;51.270;9.434;2023-08-06T01:31:36;98563.41;;;14.40;78.21
16664;BME280;8445;51.270;9.434;2023-08-06T01:34:08;98566.88;;;14.40;78.12
16664;BME280;8445;51.270;9.434;2023-08-06T01:36:36;98556.78;;;14.42;78.11
16664;BME280;8445;51.270;9.434;2023-08-06T01:39:02;98558.75;;;14.47;78.24
16664;BME280;8445;51.270;9.434;2023-08-06T01:41:28;98555.59;;;14.50;78.27
16664;BME280;8445;51.270;9.434;2023-08-06T01:43:54;98551.63;;;14.53;78.36
16664;BME280;8445;51.270;9.434;2023-08-06T01:46:20;98554.66;;;14.56;78.29
16664;BME280;8445;51.270;9.434;2023-08-06T01:48:46;98554.16;;;14.59;78.38
16664;BME280;8445;51.270;9.434;2023-08-06T01:51:11;98548.31;;;14.62;78.51
16664;BME280;8445;51.270;9.434;2023-08-06T01:53:38;98548.91;;;14.64;78.49
16664;BME280;8445;51.270;9.434;2023-08-06T01:56:03;98547.34;;;14.68;78.48
16664;BME280;8445;51.270;9.434;2023-08-06T01:58:29;98541.19;;;14.68;78.64
16664;BME280;8445;51.270;9.434;2023-08-06T02:00:55;98547.59;;;14.67;78.75
16664;BME280;8445;51.270;9.434;2023-08-06T02:03:22;98541.91;;;14.63;78.60
16664;BME280;8445;51.270;9.434;2023-08-06T02:05:48;98537.53;;;14.57;78.63
16664;BME280;8445;51.270;9.434;2023-08-06T02:08:14;98528.56;;;14.52;79.07
16664;BME280;8445;51.270;9.434;2023-08-06T02:10:40;98537.66;;;14.51;79.00
16664;BME280;8445;51.270;9.434;2023-08-06T02:13:07;98538.72;;;14.49;79.07
16664;BME280;8445;51.270;9.434;2023-08-06T02:15:33;98535.94;;;14.44;78.94
16664;BME280;8445;51.270;9.434;2023-08-06T02:17:59;98529.38;;;14.40;79.25
16664;BME280;8445;51.270;9.434;2023-08-06T02:20:25;98527.91;;;14.33;79.49
16664;BME280;8445;51.270;9.434;2023-08-06T02:22:50;98522.81;;;14.19;79.48
16664;BME280;8445;51.270;9.434;2023-08-06T02:25:16;98519.69;;;14.11;79.34
16664;BME280;8445;51.270;9.434;2023-08-06T02:27:42;98514.72;;;14.03;79.53
16664;BME280;8445;51.270;9.434;2023-08-06T02:30:08;98522.41;;;13.99;79.44
16664;BME280;8445;51.270;9.434;2023-08-06T02:32:34;98507.16;;;14.00;79.83
16664;BME280;8445;51.270;9.434;2023-08-06T02:35:02;98508.09;;;14.05;79.79
16664;BME280;8445;51.270;9.434;2023-08-06T02:37:28;98494.22;;;14.08;79.56
16664;BME280;8445;51.270;9.434;2023-08-06T02:39:54;98495.72;;;14.16;79.33
16664;BME280;8445;51.270;9.434;2023-08-06T02:42:20;98490.69;;;14.19;79.55
16664;BME280;8445;51.270;9.434;2023-08-06T02:44:46;98476.13;;;14.15;79.64
16664;BME280;8445;51.270;9.434;2023-08-06T02:47:12;98485.13;;;14.09;79.57
16664;BME280;8445;51.270;9.434;2023-08-06T02:49:38;98470.72;;;13.99;79.85
16664;BME280;8445;51.270;9.434;2023-08-06T02:52:04;98473.78;;;13.90;80.10
16664;BME280;8445;51.270;9.434;2023-08-06T02:54:30;98476.09;;;13.87;80.06
16664;BME280;8445;51.270;9.434;2023-08-06T02:56:56;98472.84;;;13.85;80.19
16664;BME280;8445;51.270;9.434;2023-08-06T02:59:31;98459.59;;;13.90;79.84
16664;BME280;8445;51.270;9.434;2023-08-06T03:02:18;98459.19;;;13.98;79.85
16664;BME280;8445;51.270;9.434;2023-08-06T03:04:57;98463.50;;;13.99;79.96
16664;BME280;8445;51.270;9.434;2023-08-06T03:07:27;98453.16;;;14.03;79.90
16664;BME280;8445;51.270;9.434;2023-08-06T03:09:59;98448.13;;;14.06;79.86
16664;BME280;8445;51.270;9.434;2023-08-06T03:12:28;98442.28;;;14.09;80.01
16664;BME280;8445;51.270;9.434;2023-08-06T03:14:54;98441.56;;;14.14;80.07
16664;BME280;8445;51.270;9.434;2023-08-06T03:17:20;98438.75;;;14.20;80.12
16664;BME280;8445;51.270;9.434;2023-08-06T03:19:47;98445.81;;;14.27;80.10
16664;BME280;8445;51.270;9.434;2023-08-06T03:22:14;98441.63;;;14.31;80.08
16664;BME280;8445;51.270;9.434;2023-08-06T03:24:40;98436.09;;;14.37;80.26
16664;BME280;8445;51.270;9.434;2023-08-06T03:27:07;98432.94;;;14.40;80.28
16664;BME280;8445;51.270;9.434;2023-08-06T03:29:33;98428.78;;;14.44;80.13
16664;BME280;8445;51.270;9.434;2023-08-06T03:32:00;98416.75;;;14.47;80.44
16664;BME280;8445;51.270;9.434;2023-08-06T03:34:27;98424.06;;;14.52;80.28
16664;BME280;8445;51.270;9.434;2023-08-06T03:36:53;98424.38;;;14.55;80.29
16664;BME280;8445;51.270;9.434;2023-08-06T03:39:19;98420.66;;;14.56;80.33
16664;BME280;8445;51.270;9.434;2023-08-06T03:41:45;98420.75;;;14.61;80.33
16664;BME280;8445;51.270;9.434;2023-08-06T03:44:11;98421.31;;;14.63;80.45
16664;BME280;8445;51.270;9.434;2023-08-06T03:46:37;98416.28;;;14.67;80.37
16664;BME280;8445;51.270;9.434;2023-08-06T03:49:05;98418.25;;;14.71;80.57
16664;BME280;8445;51.270;9.434;2023-08-06T03:51:31;98414.81;;;14.76;80.44
16664;BME280;8445;51.270;9.434;2023-08-06T03:53:57;98413.81;;;14.82;80.47
16664;BME280;8445;51.270;9.434;2023-08-06T03:56:23;98410.44;;;14.87;80.44
16664;BME280;8445;51.270;9.434;2023-08-06T03:58:49;98404.00;;;14.88;80.44
16664;BME280;8445;51.270;9.434;2023-08-06T04:01:15;98414.81;;;14.93;80.20
16664;BME280;8445;51.270;9.434;2023-08-06T04:03:44;98408.97;;;14.96;80.38
16664;BME280;8445;51.270;9.434;2023-08-06T04:06:10;98408.47;;;14.99;80.63
16664;BME280;8445;51.270;9.434;2023-08-06T04:08:36;98415.22;;;15.01;80.50
16664;BME280;8445;51.270;9.434;2023-08-06T04:11:02;98410.16;;;15.05;80.26
16664;BME280;8445;51.270;9.434;2023-08-06T04:13:29;98409.66;;;15.08;80.59
16664;BME280;8445;51.270;9.434;2023-08-06T04:16:01;98403.84;;;15.11;80.42
16664;BME280;8445;51.270;9.434;2023-08-06T04:18:28;98406.81;;;15.15;80.34
16664;BME280;8445;51.270;9.434;2023-08-06T04:20:55;98407.69;;;15.20;80.24
16664;BME280;8445;51.270;9.434;2023-08-06T04:23:23;98410.94;;;15.22;80.27
16664;BME280;8445;51.270;9.434;2023-08-06T04:25:50;98414.78;;;15.26;80.26
16664;BME280;8445;51.270;9.434;2023-08-06T04:28:16;98416.69;;;15.31;80.39
16664;BME280;8445;51.270;9.434;2023-08-06T04:30:42;98408.16;;;15.34;80.18
16664;BME280;8445;51.270;9.434;2023-08-06T04:33:09;98410.38;;;15.37;80.13
16664;BME280;8445;51.270;9.434;2023-08-06T04:35:35;98418.72;;;15.41;80.26
16664;BME280;8445;51.270;9.434;2023-08-06T04:38:03;98416.84;;;15.41;80.22
16664;BME280;8445;51.270;9.434;2023-08-06T04:40:37;98420.09;;;15.43;80.29
16664;BME280;8445;51.270;9.434;2023-08-06T04:43:04;98413.66;;;15.44;80.21
16664;BME280;8445;51.270;9.434;2023-08-06T04:45:33;98404.28;;;15.47;80.00
16664;BME280;8445;51.270;9.434;2023-08-06T04:47:58;98405.69;;;15.49;80.13
16664;BME280;8445;51.270;9.434;2023-08-06T04:50:26;98404.84;;;15.49;80.19
16664;BME280;8445;51.270;9.434;2023-08-06T04:52:58;98401.38;;;15.48;80.06
16664;BME280;8445;51.270;9.434;2023-08-06T04:55:27;98405.69;;;15.49;80.36
16664;BME280;8445;51.270;9.434;2023-08-06T04:58:10;98404.94;;;15.54;80.30
16664;BME280;8445;51.270;9.434;2023-08-06T05:00:39;98412.22;;;15.58;80.17
16664;BME280;8445;51.270;9.434;2023-08-06T05:03:07;98412.56;;;15.62;79.89
16664;BME280;8445;51.270;9.434;2023-08-06T05:05:35;98409.16;;;15.66;79.95
16664;BME280;8445;51.270;9.434;2023-08-06T05:08:02;98414.81;;;15.70;79.92
16664;BME280;8445;51.270;9.434;2023-08-06T05:10:29;98420.19;;;15.70;79.85
16664;BME280;8445;51.270;9.434;2023-08-06T05:12:56;98425.06;;;15.73;79.82
16664;BME280;8445;51.270;9.434;2023-08-06T05:15:23;98403.84;;;15.72;79.72
16664;BME280;8445;51.270;9.434;2023-08-06T05:17:55;98414.16;;;15.80;79.65
16664;BME280;8445;51.270;9.434;2023-08-06T05:20:22;98411.22;;;15.81;79.73
16664;BME280;8445;51.270;9.434;2023-08-06T05:22:49;98416.06;;;15.84;79.54
16664;BME280;8445;51.270;9.434;2023-08-06T05:25:21;98415.56;;;15.87;79.57
16664;BME280;8445;51.270;9.434;2023-08-06T05:27:48;98415.88;;;15.91;79.66
16664;BME280;8445;51.270;9.434;2023-08-06T05:30:25;98417.56;;;15.97;79.44
16664;BME280;8445;51.270;9.434;2023-08-06T05:32:56;98426.50;;;16.03;79.23
16664;BME280;8445;51.270;9.434;2023-08-06T05:35:24;98421.22;;;16.13;79.13
16664;BME280;8445;51.270;9.434;2023-08-06T05:37:56;98417.31;;;16.25;78.87
16664;BME280;8445;51.270;9.434;2023-08-06T05:40:30;98418.03;;;16.43;78.75
16664;BME280;8445;51.270;9.434;2023-08-06T05:43:01;98414.16;;;16.61;78.30
16664;BME280;8445;51.270;9.434;2023-08-06T05:45:29;98411.63;;;16.76;78.38
16664;BME280;8445;51.270;9.434;2023-08-06T05:47:55;98415.03;;;16.98;78.02
16664;BME280;8445;51.270;9.434;2023-08-06T05:50:24;98406.00;;;17.20;77.43
16664;BME280;8445;51.270;9.434;2023-08-06T05:52:56;98405.88;;;17.47;77.12
16664;BME280;8445;51.270;9.434;2023-08-06T05:55:30;98399.56;;;17.73;76.72
16664;BME280;8445;51.270;9.434;2023-08-06T05:57:58;98408.78;;;17.87;76.41
16664;BME280;8445;51.270;9.434;2023-08-06T06:00:24;98404.81;;;18.10;76.16
16664;BME280;8445;51.270;9.434;2023-08-06T06:02:50;98403.78;;;18.42;75.92
16664;BME280;8445;51.270;9.434;2023-08-06T06:05:17;98409.25;;;18.72;75.46
16664;BME280;8445;51.270;9.434;2023-08-06T06:07:45;98406.28;;;18.84;75.32
16664;BME280;8445;51.270;9.434;2023-08-06T06:10:13;98406.50;;;19.03;75.19
16664;BME280;8445;51.270;9.434;2023-08-06T06:12:40;98393.53;;;19.15;74.75
16664;BME280;8445;51.270;9.434;2023-08-06T06:15:07;98393.47;;;19.35;74.45
16664;BME280;8445;51.270;9.434;2023-08-06T06:17:33;98394.78;;;19.58;73.53
16664;BME280;8445;51.270;9.434;2023-08-06T06:19:59;98388.44;;;19.93;72.92
16664;BME280;8445;51.270;9.434;2023-08-06T06:22:25;98393.16;;;20.17;72.53
16664;BME280;8445;51.270;9.434;2023-08-06T06:24:51;98394.22;;;20.21;72.28
16664;BME280;8445;51.270;9.434;2023-08-06T06:27:17;98389.19;;;20.04;72.67
16664;BME280;8445;51.270;9.434;2023-08-06T06:29:45;98388.22;;;19.80;72.86
16664;BME280;8445;51.270;9.434;2023-08-06T06:32:11;98387.22;;;19.60;73.08
16664;BME280;8445;51.270;9.434;2023-08-06T06:34:37;98388.59;;;19.42;73.22
16664;BME280;8445;51.270;9.434;2023-08-06T06:37:03;98387.81;;;19.32;73.23
16664;BME280;8445;51.270;9.434;2023-08-06T06:39:29;98392.97;;;19.28;72.82
16664;BME280;8445;51.270;9.434;2023-08-06T06:41:55;98381.31;;;19.43;72.46
16664;BME280;8445;51.270;9.434;2023-08-06T06:44:29;98382.81;;;19.80;71.66
16664;BME280;8445;51.270;9.434;2023-08-06T06:46:54;98378.16;;;20.34;70.58
16664;BME280;8445;51.270;9.434;2023-08-06T06:49:20;98386.28;;;20.74;69.51
16664;BME280;8445;51.270;9.434;2023-08-06T06:51:46;98384.81;;;20.86;69.49
16664;BME280;8445;51.270;9.434;2023-08-06T06:54:12;98379.63;;;20.90;69.76
16664;BME280;8445;51.270;9.434;2023-08-06T06:56:38;98381.34;;;20.81;70.02
16664;BME280;8445;51.270;9.434;2023-08-06T06:59:04;98377.00;;;20.85;69.98
16664;BME280;8445;51.270;9.434;2023-08-06T07:01:30;98374.94;;;20.72;69.73
16664;BME280;8445;51.270;9.434;2023-08-06T07:03:56;98381.03;;;20.53;70.16
16664;BME280;8445;51.270;9.434;2023-08-06T07:06:22;98377.59;;;20.43;70.25
16664;BME280;8445;51.270;9.434;2023-08-06T07:08:48;98377.59;;;20.37;70.36
16664;BME280;8445;51.270;9.434;2023-08-06T07:11:14;98365.22;;;20.31;70.08
16664;BME280;8445;51.270;9.434;2023-08-06T07:13:40;98366.38;;;20.20;69.85
16664;BME280;8445;51.270;9.434;2023-08-06T07:16:06;98378.44;;;19.94;70.63
16664;BME280;8445;51.270;9.434;2023-08-06T07:18:32;98376.09;;;19.72;70.66
16664;BME280;8445;51.270;9.434;2023-08-06T07:20:58;98365.31;;;19.62;70.92
16664;BME280;8445;51.270;9.434;2023-08-06T07:23:25;98370.28;;;19.99;69.85
16664;BME280;8445;51.270;9.434;2023-08-06T07:25:52;98362.59;;;20.55;68.43
16664;BME280;8445;51.270;9.434;2023-08-06T07:28:21;98375.91;;;20.86;67.90
16664;BME280;8445;51.270;9.434;2023-08-06T07:30:49;98366.97;;;21.09;68.10
16664;BME280;8445;51.270;9.434;2023-08-06T07:33:15;98365.03;;;21.87;66.17
16664;BME280;8445;51.270;9.434;2023-08-06T07:35:41;98361.69;;;22.32;65.42
16664;BME280;8445;51.270;9.434;2023-08-06T07:38:07;98358.16;;;22.51;65.55
16664;BME280;8445;51.270;9.434;2023-08-06T07:40:35;98355.22;;;23.12;64.26
16664;BME280;8445;51.270;9.434;2023-08-06T07:43:01;98348.50;;;23.65;63.72
16664;BME280;8445;51.270;9.434;2023-08-06T07:45:27;98360.28;;;24.10;62.64
16664;BME280;8445;51.270;9.434;2023-08-06T07:47:53;98351.31;;;24.09;62.93
16664;BME280;8445;51.270;9.434;2023-08-06T07:50:19;98351.97;;;23.93;62.97
16664;BME280;8445;51.270;9.434;2023-08-06T07:52:45;98352.34;;;24.00;62.80
16664;BME280;8445;51.270;9.434;2023-08-06T07:55:11;98345.56;;;24.47;61.40
16664;BME280;8445;51.270;9.434;2023-08-06T07:57:37;98339.72;;;24.85;60.31
16664;BME280;8445;51.270;9.434;2023-08-06T08:00:04;98345.03;;;25.12;60.31
16664;BME280;8445;51.270;9.434;2023-08-06T08:02:38;98342.88;;;25.49;59.05
16664;BME280;8445;51.270;9.434;2023-08-06T08:05:04;98340.75;;;25.77;58.68
16664;BME280;8445;51.270;9.434;2023-08-06T08:07:33;98340.94;;;25.80;58.14
16664;BME280;8445;51.270;9.434;2023-08-06T08:09:58;98336.50;;;25.62;58.81
16664;BME280;8445;51.270;9.434;2023-08-06T08:12:24;98335.81;;;25.39;59.21
16664;BME280;8445;51.270;9.434;2023-08-06T08:14:50;98338.31;;;24.96;59.68
16664;BME280;8445;51.270;9.434;2023-08-06T08:17:16;98343.09;;;24.37;60.72
16664;BME280;8445;51.270;9.434;2023-08-06T08:19:42;98337.28;;;23.80;61.17
16664;BME280;8445;51.270;9.434;2023-08-06T08:22:08;98338.00;;;23.44;61.41
16664;BME280;8445;51.270;9.434;2023-08-06T08:24:35;98335.72;;;23.38;61.09
16664;BME280;8445;51.270;9.434;2023-08-06T08:27:01;98331.25;;;23.83;59.62
16664;BME280;8445;51.270;9.434;2023-08-06T08:29:30;98331.75;;;24.43;57.67
16664;BME280;8445;51.270;9.434;2023-08-06T08:31:57;98332.06;;;24.95;57.00
16664;BME280;8445;51.270;9.434;2023-08-06T08:34:24;98336.00;;;25.43;56.47
16664;BME280;8445;51.270;9.434;2023-08-06T08:36:51;98326.53;;;25.49;56.26
16664;BME280;8445;51.270;9.434;2023-08-06T08:39:18;98326.56;;;25.09;57.30
16664;BME280;8445;51.270;9.434;2023-08-06T08:41:44;98325.25;;;24.75;57.77
16664;BME280;8445;51.270;9.434;2023-08-06T08:44:10;98323.31;;;24.45;58.51
16664;BME280;8445;51.270;9.434;2023-08-06T08:46:40;98321.25;;;24.14;58.69
16664;BME280;8445;51.270;9.434;2023-08-06T08:49:07;98330.66;;;24.08;58.35
16664;BME280;8445;51.270;9.434;2023-08-06T08:51:34;98330.06;;;24.11;57.85
16664;BME280;8445;51.270;9.434;2023-08-06T08:54:04;98330.34;;;24.46;57.26
16664;BME280;8445;51.270;9.434;2023-08-06T08:56:31;98324.53;;;24.92;55.73
16664;BME280;8445;51.270;9.434;2023-08-06T08:58:57;98326.59;;;24.87;55.97
16664;BME280;8445;51.270;9.434;2023-08-06T09:01:23;98320.28;;;24.77;55.95
16664;BME280;8445;51.270;9.434;2023-08-06T09:03:51;98318.94;;;24.66;56.17
16664;BME280;8445;51.270;9.434;2023-08-06T09:06:19;98316.66;;;24.91;55.54
16664;BME280;8445;51.270;9.434;2023-08-06T09:09:08;98315.50;;;25.62;53.82
16664;BME280;8445;51.270;9.434;2023-08-06T09:11:43;98311.34;;;25.65;54.09
16664;BME280;8445;51.270;9.434;2023-08-06T09:14:12;98313.50;;;25.94;53.75
16664;BME280;8445;51.270;9.434;2023-08-06T09:16:39;98313.16;;;26.13;53.39
16664;BME280;8445;51.270;9.434;2023-08-06T09:19:14;98309.28;;;26.66;52.20
16664;BME280;8445;51.270;9.434;2023-08-06T09:21:46;98308.44;;;26.83;52.56
16664;BME280;8445;51.270;9.434;2023-08-06T09:24:16;98306.88;;;26.56;53.23
16664;BME280;8445;51.270;9.434;2023-08-06T09:26:48;98315.75;;;26.35;53.19
16664;BME280;8445;51.270;9.434;2023-08-06T09:29:17;98322.50;;;26.12;53.49
16664;BME280;8445;51.270;9.434;2023-08-06T09:31:49;98315.34;;;26.80;51.23
16664;BME280;8445;51.270;9.434;2023-08-06T09:34:23;98304.72;;;27.93;49.41
16664;BME280;8445;51.270;9.434;2023-08-06T09:36:54;98300.41;;;28.46;48.73
16664;BME280;8445;51.270;9.434;2023-08-06T09:39:31;98300.19;;;28.51;48.18
16664;BME280;8445;51.270;9.434;2023-08-06T09:42:02;98299.50;;;28.87;47.64
16664;BME280;8445;51.270;9.434;2023-08-06T09:44:32;98298.84;;;29.63;46.77
16664;BME280;8445;51.270;9.434;2023-08-06T09:47:04;98301.56;;;29.88;45.36
16664;BME280;8445;51.270;9.434;2023-08-06T09:52:02;98308.78;;;29.07;46.53
16664;BME280;8445;51.270;9.434;2023-08-06T09:54:30;98309.97;;;28.40;47.53
16664;BME280;8445;51.270;9.434;2023-08-06T09:56:58;98297.97;;;27.61;48.54
16664;BME280;8445;51.270;9.434;2023-08-06T09:59:26;98301.16;;;26.95;49.53
16664;BME280;8445;51.270;9.434;2023-08-06T10:01:54;98290.50;;;26.56;50.01
16664;BME280;8445;51.270;9.434;2023-08-06T10:04:27;98295.66;;;26.48;49.99
16664;BME280;8445;51.270;9.434;2023-08-06T10:06:58;98295.50;;;26.54;49.42
16664;BME280;8445;51.270;9.434;2023-08-06T10:09:31;98300.34;;;26.48;49.65
16664;BME280;8445;51.270;9.434;2023-08-06T10:12:05;98289.41;;;26.39;49.14
16664;BME280;8445;51.270;9.434;2023-08-06T10:14:36;98287.81;;;26.47;48.75
16664;BME280;8445;51.270;9.434;2023-08-06T10:17:05;98290.44;;;26.81;48.15
16664;BME280;8445;51.270;9.434;2023-08-06T10:19:35;98283.50;;;27.31;47.21
16664;BME280;8445;51.270;9.434;2023-08-06T10:22:15;98274.13;;;27.70;46.10
16664;BME280;8445;51.270;9.434;2023-08-06T10:27:40;98274.44;;;28.10;45.18
16664;BME280;8445;51.270;9.434;2023-08-06T10:30:23;98269.66;;;28.73;45.19
16664;BME280;8445;51.270;9.434;2023-08-06T10:33:01;98263.56;;;29.25;44.58
16664;BME280;8445;51.270;9.434;2023-08-06T10:38:19;98258.72;;;29.59;43.55
16664;BME280;8445;51.270;9.434;2023-08-06T10:45:55;98253.09;;;29.80;43.28
16664;BME280;8445;51.270;9.434;2023-08-06T10:48:40;98249.88;;;29.78;42.79
16664;BME280;8445;51.270;9.434;2023-08-06T10:51:12;98246.25;;;30.01;42.97
16664;BME280;8445;51.270;9.434;2023-08-06T10:53:44;98248.03;;;30.22;42.18
16664;BME280;8445;51.270;9.434;2023-08-06T10:56:15;98246.44;;;30.65;41.21
16664;BME280;8445;51.270;9.434;2023-08-06T10:58:42;98249.19;;;30.96;40.96
16664;BME280;8445;51.270;9.434;2023-08-06T11:01:10;98241.03;;;31.15;39.77
16664;BME280;8445;51.270;9.434;2023-08-06T11:03:38;98230.09;;;31.35;39.99
16664;BME280;8445;51.270;9.434;2023-08-06T11:06:06;98231.38;;;31.57;39.26
16664;BME280;8445;51.270;9.434;2023-08-06T11:08:47;98219.19;;;31.93;38.11
16664;BME280;8445;51.270;9.434;2023-08-06T11:11:16;98225.34;;;31.86;38.13
16664;BME280;8445;51.270;9.434;2023-08-06T11:13:47;98224.31;;;31.40;38.84
16664;BME280;8445;51.270;9.434;2023-08-06T11:16:16;98224.00;;;30.94;39.38
16664;BME280;8445;51.270;9.434;2023-08-06T11:18:43;98220.28;;;30.71;39.94
16664;BME280;8445;51.270;9.434;2023-08-06T11:21:09;98214.78;;;30.71;39.79
16664;BME280;8445;51.270;9.434;2023-08-06T11:23:36;98212.66;;;30.64;39.62
16664;BME280;8445;51.270;9.434;2023-08-06T11:26:03;98215.19;;;30.57;39.36
16664;BME280;8445;51.270;9.434;2023-08-06T11:28:29;98219.34;;;30.35;39.46
16664;BME280;8445;51.270;9.434;2023-08-06T11:30:55;98214.63;;;30.20;38.86
16664;BME280;8445;51.270;9.434;2023-08-06T11:33:24;98210.16;;;30.15;38.76
16664;BME280;8445;51.270;9.434;2023-08-06T11:35:59;98209.38;;;30.15;38.77
16664;BME280;8445;51.270;9.434;2023-08-06T11:38:29;98208.94;;;30.00;38.75
16664;BME280;8445;51.270;9.434;2023-08-06T11:40:56;98211.78;;;29.76;38.95
16664;BME280;8445;51.270;9.434;2023-08-06T11:43:25;98207.75;;;29.33;38.72
16664;BME280;8445;51.270;9.434;2023-08-06T11:45:51;98208.47;;;29.18;39.43
16664;BME280;8445;51.270;9.434;2023-08-06T11:48:19;98209.59;;;29.17;39.36
16664;BME280;8445;51.270;9.434;2023-08-06T11:50:45;98207.31;;;29.07;39.36
16664;BME280;8445;51.270;9.434;2023-08-06T11:53:15;98203.56;;;28.99;39.38
16664;BME280;8445;51.270;9.434;2023-08-06T11:55:41;98204.13;;;29.17;38.95
16664;BME280;8445;51.270;9.434;2023-08-06T11:58:10;98197.81;;;29.29;38.60
16664;BME280;8445;51.270;9.434;2023-08-06T12:00:41;98199.50;;;29.46;38.35
16664;BME280;8445;51.270;9.434;2023-08-06T12:03:09;98188.97;;;29.60;37.32
16664;BME280;8445;51.270;9.434;2023-08-06T12:05:35;98185.00;;;29.85;37.53
16664;BME280;8445;51.270;9.434;2023-08-06T12:08:03;98187.16;;;30.20;37.48
16664;BME280;8445;51.270;9.434;2023-08-06T12:10:31;98186.94;;;30.13;37.79
16664;BME280;8445;51.270;9.434;2023-08-06T12:12:57;98181.31;;;29.93;38.39
16664;BME280;8445;51.270;9.434;2023-08-06T12:15:23;98182.91;;;29.66;39.05
16664;BME280;8445;51.270;9.434;2023-08-06T12:17:50;98183.50;;;29.35;39.26
16664;BME280;8445;51.270;9.434;2023-08-06T12:20:16;98181.03;;;29.06;39.58
16664;BME280;8445;51.270;9.434;2023-08-06T12:22:42;98179.78;;;28.79;39.87
16664;BME280;8445;51.270;9.434;2023-08-06T12:25:10;98182.50;;;28.54;40.02
16664;BME280;8445;51.270;9.434;2023-08-06T12:27:43;98179.41;;;28.32;40.45
16664;BME280;8445;51.270;9.434;2023-08-06T12:30:13;98174.03;;;28.35;39.76
16664;BME280;8445;51.270;9.434;2023-08-06T12:32:40;98170.97;;;28.61;39.44
16664;BME280;8445;51.270;9.434;2023-08-06T12:35:08;98168.59;;;28.72;39.41
16664;BME280;8445;51.270;9.434;2023-08-06T12:37:38;98185.13;;;28.63;39.31
16664;BME280;8445;51.270;9.434;2023-08-06T12:40:06;98183.50;;;28.38;39.88
16664;BME280;8445;51.270;9.434;2023-08-06T12:42:34;98188.56;;;27.82;40.65
16664;BME280;8445;51.270;9.434;2023-08-06T12:45:06;98191.47;;;27.35;41.46
16664;BME280;8445;51.270;9.434;2023-08-06T12:47:36;98202.22;;;27.10;41.94
16664;BME280;8445;51.270;9.434;2023-08-06T12:50:09;98199.56;;;26.93;41.88
16664;BME280;8445;51.270;9.434;2023-08-06T12:52:40;98200.44;;;26.85;42.08
16664;BME280;8445;51.270;9.434;2023-08-06T12:55:08;98207.22;;;26.70;42.00
16664;BME280;8445;51.270;9.434;2023-08-06T12:57:36;98211.84;;;26.23;42.64
16664;BME280;8445;51.270;9.434;2023-08-06T13:00:04;98211.44;;;25.78;43.61
16664;BME280;8445;51.270;9.434;2023-08-06T13:02:34;98223.72;;;25.32;44.30
16664;BME280;8445;51.270;9.434;2023-08-06T13:05:04;98224.38;;;24.89;45.32
16664;BME280;8445;51.270;9.434;2023-08-06T13:07:32;98228.22;;;24.57;45.92
16664;BME280;8445;51.270;9.434;2023-08-06T13:10:08;98237.09;;;24.32;46.92
16664;BME280;8445;51.270;9.434;2023-08-06T13:12:38;98232.16;;;24.20;47.02
16664;BME280;8445;51.270;9.434;2023-08-06T13:15:05;98231.84;;;24.22;47.27
16664;BME280;8445;51.270;9.434;2023-08-06T13:17:37;98233.56;;;24.31;47.71
16664;BME280;8445;51.270;9.434;2023-08-06T13:20:06;98222.06;;;24.43;47.83
16664;BME280;8445;51.270;9.434;2023-08-06T13:22:33;98219.94;;;24.62;47.79
16664;BME280;8445;51.270;9.434;2023-08-06T13:25:01;98225.03;;;24.95;47.45
16664;BME280;8445;51.270;9.434;2023-08-06T13:27:28;98232.84;;;25.36;47.26
16664;BME280;8445;51.270;9.434;2023-08-06T13:29:57;98239.00;;;25.76;46.86
16664;BME280;8445;51.270;9.434;2023-08-06T13:32:25;98242.25;;;26.04;46.35